createdAt,value
2022-08-17T00:00:00.048Z,100.00
2022-08-17T00:03:28.761Z,100.00
2022-08-17T00:06:40.046Z,100.00
2022-08-17T00:09:46.200Z,100.00
2022-08-17T00:12:55.726Z,100.00
2022-08-17T00:16:00.320Z,100.00
2022-08-17T00:19:08.783Z,100.00
2022-08-17T00:22:33.172Z,100.00
2022-08-17T00:25:27.050Z,100.00
2022-08-17T00:28:33.357Z,100.00
2022-08-17T00:31:39.319Z,100.00
2022-08-17T00:34:45.748Z,100.00
2022-08-17T00:37:51.831Z,100.00
2022-08-17T00:41:09.725Z,100.00
2022-08-17T00:44:19.565Z,100.00
2022-08-17T00:47:25.958Z,100.00
2022-08-17T00:50:33.100Z,100.00
2022-08-17T00:53:41.791Z,100.00
2022-08-17T00:56:54.220Z,100.00
2022-08-17T01:00:03.786Z,100.00
2022-08-17T01:03:38.744Z,100.00
2022-08-17T01:06:45.020Z,100.00
2022-08-17T01:09:51.091Z,100.00
2022-08-17T01:12:57.117Z,100.00
2022-08-17T01:16:09.144Z,100.00
2022-08-17T01:19:17.244Z,100.00
2022-08-17T01:22:33.360Z,100.00
2022-08-17T01:25:39.449Z,100.00
2022-08-17T01:28:53.410Z,100.00
2022-08-17T01:32:03.631Z,100.00
2022-08-17T01:35:08.797Z,100.00
2022-08-17T01:38:14.439Z,100.00
2022-08-17T01:41:24.250Z,100.00
2022-08-17T01:44:30.067Z,100.00
2022-08-17T01:47:36.069Z,100.00
2022-08-17T01:50:46.181Z,100.00
2022-08-17T01:53:55.045Z,100.00
2022-08-17T01:57:04.343Z,100.00
2022-08-17T02:00:09.664Z,100.00
2022-08-17T02:03:15.397Z,100.00
2022-08-17T02:06:27.874Z,100.00
2022-08-17T02:09:29.829Z,100.00
2022-08-17T02:12:38.790Z,100.00
2022-08-17T02:15:44.293Z,100.00
2022-08-17T02:18:49.654Z,100.00
2022-08-17T02:21:56.936Z,100.00
2022-08-17T02:25:03.261Z,100.00
2022-08-17T02:28:08.613Z,100.00
2022-08-17T02:31:20.954Z,100.00
2022-08-17T02:34:25.998Z,100.00
2022-08-17T02:37:31.495Z,100.00
2022-08-17T02:40:37.216Z,100.00
2022-08-17T02:43:42.326Z,100.00
2022-08-17T02:46:47.831Z,100.00
2022-08-17T02:49:56.132Z,100.00
2022-08-17T02:53:02.952Z,100.00
2022-08-17T02:56:10.255Z,100.00
2022-08-17T02:59:15.511Z,100.00
2022-08-17T03:02:25.204Z,100.00
2022-08-17T03:05:32.944Z,100.00
2022-08-17T03:08:38.272Z,100.00
2022-08-17T03:11:43.481Z,100.00
2022-08-17T03:14:50.520Z,100.00
2022-08-17T03:17:56.338Z,100.00
2022-08-17T03:21:01.789Z,100.00
2022-08-17T03:24:09.056Z,100.00
2022-08-17T03:27:14.888Z,100.00
2022-08-17T03:30:23.731Z,100.00
2022-08-17T03:33:29.861Z,100.00
2022-08-17T03:36:36.258Z,100.00
2022-08-17T03:39:42.800Z,100.00
2022-08-17T03:42:48.991Z,100.00
2022-08-17T03:46:34.435Z,100.00
2022-08-17T03:49:38.891Z,100.00
2022-08-17T03:53:02.272Z,100.00
2022-08-17T03:56:26.178Z,100.00
2022-08-17T03:59:34.898Z,100.00
2022-08-17T04:02:46.114Z,100.00
2022-08-17T04:05:50.554Z,100.00
2022-08-17T04:08:56.338Z,100.00
2022-08-17T04:12:04.814Z,100.00
2022-08-17T04:15:10.713Z,100.00
2022-08-17T04:18:15.774Z,100.00
2022-08-17T04:21:22.632Z,100.00
2022-08-17T04:24:28.134Z,100.00
2022-08-17T04:27:33.770Z,100.00
2022-08-17T04:30:39.232Z,100.00
2022-08-17T04:33:44.524Z,100.00
2022-08-17T04:36:51.182Z,100.00
2022-08-17T04:40:04.145Z,100.00
2022-08-17T04:43:23.205Z,100.00
2022-08-17T04:46:33.558Z,100.00
2022-08-17T04:49:39.174Z,100.00
2022-08-17T04:52:45.614Z,100.00
2022-08-17T04:55:51.410Z,100.00
2022-08-17T04:59:03.135Z,100.00
2022-08-17T05:02:08.516Z,100.00
2022-08-17T05:05:14.015Z,100.00
2022-08-17T05:08:20.936Z,100.00
2022-08-17T05:11:28.530Z,100.00
2022-08-17T05:14:34.085Z,100.00
2022-08-17T05:17:39.939Z,99.49
2022-08-17T05:20:45.346Z,96.83
2022-08-17T05:23:54.835Z,95.32
2022-08-17T05:27:02.564Z,93.61
2022-08-17T05:30:05.182Z,91.58
2022-08-17T05:33:15.679Z,89.70
2022-08-17T05:36:38.025Z,89.09
2022-08-17T05:39:29.811Z,86.41
2022-08-17T05:42:35.542Z,85.01
2022-08-17T05:45:55.784Z,84.03
2022-08-17T05:48:56.488Z,83.33
2022-08-17T05:52:25.583Z,81.27
2022-08-17T05:55:54.346Z,78.30
2022-08-17T05:59:39.799Z,76.67
2022-08-17T06:03:03.748Z,75.07
2022-08-17T06:06:42.073Z,74.45
2022-08-17T06:10:06.869Z,73.01
2022-08-17T06:13:38.617Z,71.60
2022-08-17T06:16:47.875Z,71.46
2022-08-17T06:20:13.620Z,70.82
2022-08-17T06:23:22.684Z,71.24
2022-08-17T06:26:39.696Z,71.34
2022-08-17T06:30:13.513Z,70.97
2022-08-17T06:33:24.678Z,70.20
2022-08-17T06:36:54.669Z,70.24
2022-08-17T06:40:12.151Z,68.68
2022-08-17T06:43:49.927Z,66.51
2022-08-17T06:47:05.392Z,65.61
2022-08-17T06:50:38.081Z,65.07
2022-08-17T06:53:53.292Z,65.24
2022-08-17T06:57:22.672Z,63.99
2022-08-17T07:00:31.812Z,63.62
2022-08-17T07:04:06.694Z,63.33
2022-08-17T07:07:16.078Z,63.03
2022-08-17T07:10:21.869Z,60.95
2022-08-17T07:13:54.887Z,61.55
2022-08-17T07:17:04.814Z,61.37
2022-08-17T07:20:15.251Z,62.00
2022-08-17T07:23:36.561Z,61.13
2022-08-17T07:26:42.632Z,60.63
2022-08-17T07:29:54.167Z,60.08
2022-08-17T07:33:07.519Z,59.67
2022-08-17T07:36:16.056Z,59.67
2022-08-17T07:39:21.327Z,59.16
2022-08-17T07:42:26.873Z,60.84
2022-08-17T07:45:52.665Z,60.84
2022-08-17T07:49:02.138Z,60.22
2022-08-17T07:52:47.893Z,60.36
2022-08-17T07:55:42.450Z,59.48
2022-08-17T07:58:49.365Z,59.89
2022-08-17T08:01:57.378Z,59.17
2022-08-17T08:05:48.837Z,59.14
2022-08-17T08:08:45.597Z,57.03
2022-08-17T08:11:51.810Z,56.20
2022-08-17T08:14:59.896Z,55.66
2022-08-17T08:18:13.275Z,55.65
2022-08-17T08:21:53.733Z,55.43
2022-08-17T08:25:28.820Z,55.64
2022-08-17T08:28:55.038Z,57.05
2022-08-17T08:32:15.614Z,55.35
2022-08-17T08:35:45.087Z,55.44
2022-08-17T08:39:10.880Z,55.87
2022-08-17T08:42:30.117Z,54.44
2022-08-17T08:45:49.863Z,54.77
2022-08-17T08:49:45.191Z,54.58
2022-08-17T08:52:39.743Z,56.13
2022-08-17T08:56:09.094Z,55.95
2022-08-17T08:59:22.153Z,55.17
2022-08-17T09:03:12.408Z,53.43
2022-08-17T09:06:38.645Z,53.71
2022-08-17T09:09:49.226Z,55.26
2022-08-17T09:13:19.700Z,53.37
2022-08-17T09:16:35.819Z,53.25
2022-08-17T09:20:28.013Z,53.03
2022-08-17T09:23:37.220Z,54.58
2022-08-17T09:27:08.425Z,52.47
2022-08-17T09:30:19.358Z,52.17
2022-08-17T09:33:28.884Z,54.40
2022-08-17T09:36:39.238Z,56.40
2022-08-17T09:39:55.943Z,54.23
2022-08-17T09:43:41.275Z,54.19
2022-08-17T09:46:53.105Z,54.19
2022-08-17T09:50:07.370Z,55.76
2022-08-17T09:53:14.052Z,54.91
2022-08-17T09:57:18.184Z,52.56
2022-08-17T10:00:35.952Z,52.38
2022-08-17T10:04:02.587Z,51.81
2022-08-17T10:07:13.262Z,53.22
2022-08-17T10:10:32.476Z,52.40
2022-08-17T10:14:35.905Z,52.78
2022-08-17T10:17:25.831Z,53.73
2022-08-17T10:20:45.521Z,54.33
2022-08-17T10:24:13.333Z,53.99
2022-08-17T10:27:22.648Z,54.06
2022-08-17T10:30:27.540Z,53.85
2022-08-17T10:33:41.947Z,54.26
2022-08-17T10:37:03.219Z,54.77
2022-08-17T10:40:39.703Z,54.22
2022-08-17T10:44:40.272Z,54.48
2022-08-17T10:47:52.843Z,55.25
2022-08-17T10:51:14.245Z,57.20
2022-08-17T10:54:24.747Z,60.96
2022-08-17T10:57:56.355Z,60.04
2022-08-17T11:01:13.329Z,60.57
2022-08-17T11:05:03.449Z,63.76
2022-08-17T11:08:55.249Z,63.76
2022-08-17T11:12:24.647Z,65.37
2022-08-17T11:15:48.150Z,70.44
2022-08-17T11:19:01.414Z,70.93
2022-08-17T11:22:34.328Z,72.32
2022-08-17T11:25:57.275Z,73.29
2022-08-17T11:29:05.726Z,69.23
2022-08-17T11:32:21.959Z,67.16
2022-08-17T11:35:45.171Z,68.75
2022-08-17T11:38:57.736Z,70.90
2022-08-17T11:42:22.654Z,71.27
2022-08-17T11:46:08.924Z,68.62
2022-08-17T11:49:42.638Z,67.96
2022-08-17T11:52:55.379Z,64.34
2022-08-17T11:56:14.697Z,64.24
2022-08-17T11:59:48.818Z,61.98
2022-08-17T12:02:58.146Z,58.82
2022-08-17T12:06:04.271Z,59.20
2022-08-17T12:09:16.693Z,56.88
2022-08-17T12:12:36.737Z,54.11
2022-08-17T12:15:53.780Z,54.11
2022-08-17T12:19:13.294Z,54.99
2022-08-17T12:22:40.530Z,54.08
2022-08-17T12:26:04.004Z,54.08
2022-08-17T12:29:35.613Z,52.28
2022-08-17T12:32:34.112Z,52.55
2022-08-17T12:35:55.047Z,51.30
2022-08-17T12:39:21.233Z,51.94
2022-08-17T12:42:30.402Z,50.85
2022-08-17T12:45:47.646Z,51.07
2022-08-17T12:48:58.799Z,51.94
2022-08-17T12:52:01.606Z,51.94
2022-08-17T12:55:33.936Z,53.10
2022-08-17T12:58:47.746Z,53.92
2022-08-17T13:01:56.318Z,54.37
2022-08-17T13:05:03.421Z,53.89
2022-08-17T13:08:12.300Z,54.52
2022-08-17T13:11:21.330Z,54.82
2022-08-17T13:14:27.975Z,53.88
2022-08-17T13:17:42.795Z,54.04
2022-08-17T13:20:48.534Z,52.87
2022-08-17T13:23:54.539Z,53.48
2022-08-17T13:27:08.005Z,53.48
2022-08-17T13:30:17.154Z,53.69
2022-08-17T13:33:45.202Z,52.63
2022-08-17T13:36:41.681Z,52.81
2022-08-17T13:39:49.085Z,51.23
2022-08-17T13:43:06.329Z,52.31
2022-08-17T13:46:11.062Z,51.50
2022-08-17T13:49:19.269Z,52.19
2022-08-17T13:52:50.062Z,52.69
2022-08-17T13:55:53.832Z,50.70
2022-08-17T13:59:17.479Z,50.79
2022-08-17T14:02:25.999Z,48.63
2022-08-17T14:05:31.690Z,48.51
2022-08-17T14:08:38.551Z,48.51
2022-08-17T14:11:44.986Z,51.58
2022-08-17T14:14:51.467Z,51.58
2022-08-17T14:17:57.764Z,53.24
2022-08-17T14:21:04.163Z,53.65
2022-08-17T14:24:10.182Z,54.43
2022-08-17T14:27:17.431Z,53.26
2022-08-17T14:30:24.974Z,53.03
2022-08-17T14:33:31.817Z,52.74
2022-08-17T14:36:38.365Z,51.98
2022-08-17T14:39:45.415Z,52.55
2022-08-17T14:42:52.621Z,53.02
2022-08-17T14:45:58.620Z,52.99
2022-08-17T14:49:04.375Z,50.07
2022-08-17T14:52:09.987Z,50.07
2022-08-17T14:55:15.453Z,50.57
2022-08-17T14:58:21.285Z,50.57
2022-08-17T15:01:27.460Z,49.91
2022-08-17T15:04:33.356Z,50.86
2022-08-17T15:07:38.523Z,51.44
2022-08-17T15:10:44.405Z,51.44
2022-08-17T15:13:53.013Z,49.42
2022-08-17T15:16:57.531Z,49.42
2022-08-17T15:20:04.392Z,49.22
2022-08-17T15:23:10.352Z,49.22
2022-08-17T15:26:16.051Z,49.20
2022-08-17T15:29:21.456Z,49.00
2022-08-17T15:32:45.855Z,49.12
2022-08-17T15:35:49.592Z,49.12
2022-08-17T15:38:56.044Z,50.10
2022-08-17T15:42:02.265Z,50.65
2022-08-17T15:45:07.786Z,50.94
2022-08-17T15:48:14.189Z,51.50
2022-08-17T15:51:19.962Z,52.22
2022-08-17T15:54:31.783Z,52.82
2022-08-17T15:57:34.502Z,53.27
2022-08-17T16:00:53.081Z,53.59
2022-08-17T16:04:04.053Z,54.52
2022-08-17T16:06:57.134Z,55.65
2022-08-17T16:10:07.230Z,56.52
2022-08-17T16:13:17.517Z,57.74
2022-08-17T16:16:20.684Z,58.65
2022-08-17T16:19:26.329Z,59.05
2022-08-17T16:22:32.712Z,59.69
2022-08-17T16:25:53.483Z,60.50
2022-08-17T16:28:49.900Z,61.24
2022-08-17T16:31:56.140Z,62.17
2022-08-17T16:35:02.645Z,63.07
2022-08-17T16:38:09.389Z,63.26
2022-08-17T16:41:14.750Z,64.06
2022-08-17T16:44:21.035Z,64.23
2022-08-17T16:47:27.478Z,64.45
2022-08-17T16:50:35.444Z,64.77
2022-08-17T16:53:40.716Z,65.35
2022-08-17T16:56:46.053Z,65.15
2022-08-17T16:59:51.686Z,65.11
2022-08-17T17:03:03.478Z,65.65
2022-08-17T17:06:47.089Z,65.53
2022-08-17T17:09:55.185Z,66.84
2022-08-17T17:13:03.685Z,68.21
2022-08-17T17:16:34.466Z,68.99
2022-08-17T17:19:56.714Z,69.62
2022-08-17T17:23:06.216Z,70.28
2022-08-17T17:26:42.508Z,70.20
2022-08-17T17:30:10.854Z,70.52
2022-08-17T17:33:24.186Z,71.41
2022-08-17T17:36:44.218Z,72.27
2022-08-17T17:40:00.084Z,73.03
2022-08-17T17:43:37.255Z,72.66
2022-08-17T17:46:28.467Z,72.81
2022-08-17T17:49:33.195Z,73.67
2022-08-17T17:52:54.340Z,73.91
2022-08-17T17:56:39.838Z,74.40
2022-08-17T17:59:51.726Z,75.42
2022-08-17T18:03:25.944Z,75.72
2022-08-17T18:07:04.626Z,76.08
2022-08-17T18:10:31.912Z,76.24
2022-08-17T18:14:02.981Z,76.08
2022-08-17T18:17:13.267Z,77.25
2022-08-17T18:20:20.442Z,78.60
2022-08-17T18:23:28.824Z,78.93
2022-08-17T18:26:51.078Z,79.29
2022-08-17T18:29:59.471Z,79.88
2022-08-17T18:33:05.328Z,80.18
2022-08-17T18:36:11.043Z,81.20
2022-08-17T18:39:37.537Z,82.26
2022-08-17T18:42:45.255Z,82.65
2022-08-17T18:46:00.750Z,83.62
2022-08-17T18:49:16.874Z,84.00
2022-08-17T18:52:31.542Z,84.03
2022-08-17T18:55:39.662Z,84.04
2022-08-17T18:58:46.021Z,85.15
2022-08-17T19:02:32.532Z,85.64
2022-08-17T19:05:49.149Z,85.56
2022-08-17T19:08:56.668Z,85.75
2022-08-17T19:12:03.235Z,85.65
2022-08-17T19:15:09.906Z,85.28
2022-08-17T19:18:42.832Z,85.57
2022-08-17T19:22:00.292Z,85.71
2022-08-17T19:25:09.365Z,86.22
2022-08-17T19:28:22.781Z,86.42
2022-08-17T19:31:40.666Z,86.60
2022-08-17T19:34:51.029Z,86.69
2022-08-17T19:38:29.314Z,86.90
2022-08-17T19:41:51.735Z,87.00
2022-08-17T19:45:11.497Z,87.53
2022-08-17T19:48:20.093Z,88.95
2022-08-17T19:51:30.220Z,89.70
2022-08-17T19:54:40.708Z,90.15
2022-08-17T19:58:12.269Z,90.26
2022-08-17T20:01:19.279Z,89.32
2022-08-17T20:04:49.662Z,89.56
2022-08-17T20:08:18.234Z,88.82
2022-08-17T20:11:41.587Z,90.32
2022-08-17T20:15:01.222Z,90.58
2022-08-17T20:18:06.712Z,90.54
2022-08-17T20:21:21.793Z,90.50
2022-08-17T20:24:48.353Z,90.11
2022-08-17T20:28:13.862Z,90.40
2022-08-17T20:31:57.792Z,90.32
2022-08-17T20:35:03.901Z,91.37
2022-08-17T20:38:20.369Z,91.70
2022-08-17T20:41:31.919Z,92.51
2022-08-17T20:44:50.332Z,92.59
2022-08-17T20:48:26.043Z,95.18
2022-08-17T20:51:12.754Z,95.69
2022-08-17T20:54:34.092Z,94.38
2022-08-17T20:57:54.160Z,94.78
2022-08-17T21:01:30.307Z,94.81
2022-08-17T21:05:09.663Z,94.56
2022-08-17T21:08:30.375Z,95.64
2022-08-17T21:12:02.522Z,94.87
2022-08-17T21:15:10.534Z,95.57
2022-08-17T21:18:27.320Z,95.58
2022-08-17T21:21:46.579Z,95.78
2022-08-17T21:24:58.794Z,95.81
2022-08-17T21:28:33.715Z,95.85
2022-08-17T21:31:56.491Z,96.22
2022-08-17T21:35:38.819Z,96.88
2022-08-17T21:38:53.391Z,96.75
2022-08-17T21:42:10.009Z,96.25
2022-08-17T21:45:31.747Z,95.63
2022-08-17T21:48:38.398Z,95.25
2022-08-17T21:51:44.085Z,94.65
2022-08-17T21:54:52.831Z,93.66
2022-08-17T21:58:14.125Z,95.13
2022-08-17T22:01:40.958Z,96.16
2022-08-17T22:04:52.729Z,97.20
2022-08-17T22:08:04.039Z,97.23
2022-08-17T22:11:17.166Z,97.27
2022-08-17T22:14:51.426Z,97.16
2022-08-17T22:17:53.578Z,97.66
2022-08-17T22:20:59.009Z,97.20
2022-08-17T22:24:20.345Z,96.32
2022-08-17T22:27:26.550Z,96.12
2022-08-17T22:30:36.052Z,96.70
2022-08-17T22:34:02.615Z,96.85
2022-08-17T22:37:36.122Z,97.14
2022-08-17T22:40:47.157Z,95.20
2022-08-17T22:43:52.428Z,95.51
2022-08-17T22:47:11.485Z,95.46
2022-08-17T22:50:17.528Z,96.65
2022-08-17T22:53:50.583Z,95.90
2022-08-17T22:57:29.551Z,96.55
2022-08-17T23:00:57.374Z,96.83
2022-08-17T23:04:19.094Z,96.89
2022-08-17T23:07:35.745Z,94.36
2022-08-17T23:10:44.276Z,95.81
2022-08-17T23:13:51.388Z,95.26
2022-08-17T23:17:00.648Z,94.99
2022-08-17T23:20:06.170Z,95.46
2022-08-17T23:23:12.784Z,95.30
2022-08-17T23:26:17.988Z,95.23
2022-08-17T23:29:23.967Z,94.69
2022-08-17T23:32:30.468Z,94.61
2022-08-17T23:35:39.032Z,95.09
2022-08-17T23:38:44.098Z,94.36
2022-08-17T23:41:54.687Z,94.28
2022-08-17T23:45:01.182Z,94.43
2022-08-17T23:48:07.398Z,94.42
2022-08-17T23:51:13.044Z,93.83
2022-08-17T23:54:34.335Z,93.39
2022-08-17T23:57:41.133Z,95.93
